sensor_id;sensor_type;location;lat;lon;timestamp;P1;durP1;ratioP1;P2;durP2;ratioP2
36501;SDS011;25393;46.108;3.390;2023-03-14T00:00:53;4.97;;;1.20;;
36501;SDS011;25393;46.108;3.390;2023-03-14T00:03:19;5.43;;;1.50;;
36501;SDS011;25393;46.108;3.390;2023-03-14T00:05:49;6.78;;;0.88;;
36501;SDS011;25393;46.108;3.390;2023-03-14T00:08:17;4.82;;;1.52;;
36501;SDS011;25393;46.108;3.390;2023-03-14T00:10:44;7.60;;;1.58;;
36501;SDS011;25393;46.108;3.390;2023-03-14T00:13:10;2.80;;;0.85;;
36501;SDS011;25393;46.108;3.390;2023-03-14T00:15:37;3.95;;;0.77;;
36501;SDS011;25393;46.108;3.390;2023-03-14T00:18:03;3.75;;;1.08;;
36501;SDS011;25393;46.108;3.390;2023-03-14T00:20:30;3.88;;;0.95;;
36501;SDS011;25393;46.108;3.390;2023-03-14T00:22:56;3.35;;;1.63;;
36501;SDS011;25393;46.108;3.390;2023-03-14T00:25:23;9.95;;;0.90;;
36501;SDS011;25393;46.108;3.390;2023-03-14T00:27:50;4.32;;;1.10;;
36501;SDS011;25393;46.108;3.390;2023-03-14T00:30:18;7.95;;;1.40;;
36501;SDS011;25393;46.108;3.390;2023-03-14T00:32:45;4.93;;;0.80;;
36501;SDS011;25393;46.108;3.390;2023-03-14T00:35:12;2.75;;;0.70;;
36501;SDS011;25393;46.108;3.390;2023-03-14T00:37:39;4.22;;;1.17;;
36501;SDS011;25393;46.108;3.390;2023-03-14T00:40:05;4.57;;;0.98;;
36501;SDS011;25393;46.108;3.390;2023-03-14T00:42:33;5.55;;;1.52;;
36501;SDS011;25393;46.108;3.390;2023-03-14T00:45:00;8.30;;;1.17;;
36501;SDS011;25393;46.108;3.390;2023-03-14T00:47:26;2.95;;;0.85;;
36501;SDS011;25393;46.108;3.390;2023-03-14T00:49:55;5.93;;;1.20;;
36501;SDS011;25393;46.108;3.390;2023-03-14T00:52:26;7.53;;;0.90;;
36501;SDS011;25393;46.108;3.390;2023-03-14T00:54:57;3.92;;;0.90;;
36501;SDS011;25393;46.108;3.390;2023-03-14T00:57:26;3.60;;;0.80;;
36501;SDS011;25393;46.108;3.390;2023-03-14T00:59:55;2.95;;;0.85;;
36501;SDS011;25393;46.108;3.390;2023-03-14T01:02:22;1.45;;;0.70;;
36501;SDS011;25393;46.108;3.390;2023-03-14T01:04:52;3.65;;;1.33;;
36501;SDS011;25393;46.108;3.390;2023-03-14T01:07:21;6.25;;;1.17;;
36501;SDS011;25393;46.108;3.390;2023-03-14T01:09:50;7.07;;;1.63;;
36501;SDS011;25393;46.108;3.390;2023-03-14T01:12:17;3.92;;;0.80;;
36501;SDS011;25393;46.108;3.390;2023-03-14T01:14:44;4.75;;;0.85;;
36501;SDS011;25393;46.108;3.390;2023-03-14T01:17:10;6.93;;;1.02;;
36501;SDS011;25393;46.108;3.390;2023-03-14T01:19:37;4.38;;;0.95;;
36501;SDS011;25393;46.108;3.390;2023-03-14T01:22:04;2.88;;;0.90;;
36501;SDS011;25393;46.108;3.390;2023-03-14T01:24:30;6.38;;;1.77;;
36501;SDS011;25393;46.108;3.390;2023-03-14T01:26:57;3.13;;;1.27;;
36501;SDS011;25393;46.108;3.390;2023-03-14T01:29:23;5.57;;;1.20;;
36501;SDS011;25393;46.108;3.390;2023-03-14T01:31:52;4.57;;;0.82;;
36501;SDS011;25393;46.108;3.390;2023-03-14T01:34:19;4.45;;;0.90;;
36501;SDS011;25393;46.108;3.390;2023-03-14T01:36:45;4.22;;;1.10;;
36501;SDS011;25393;46.108;3.390;2023-03-14T01:39:12;5.85;;;1.40;;
36501;SDS011;25393;46.108;3.390;2023-03-14T01:41:39;4.10;;;1.25;;
36501;SDS011;25393;46.108;3.390;2023-03-14T01:44:10;7.50;;;1.98;;
36501;SDS011;25393;46.108;3.390;2023-03-14T01:51:38;10.70;;;2.17;;
36501;SDS011;25393;46.108;3.390;2023-03-14T01:54:10;2.45;;;0.75;;
36501;SDS011;25393;46.108;3.390;2023-03-14T01:56:37;3.60;;;0.82;;
36501;SDS011;25393;46.108;3.390;2023-03-14T01:59:07;2.33;;;0.80;;
36501;SDS011;25393;46.108;3.390;2023-03-14T02:01:36;5.97;;;1.08;;
36501;SDS011;25393;46.108;3.390;2023-03-14T02:04:07;4.05;;;0.82;;
36501;SDS011;25393;46.108;3.390;2023-03-14T02:06:40;1.77;;;0.73;;
36501;SDS011;25393;46.108;3.390;2023-03-14T02:09:12;5.20;;;1.30;;
36501;SDS011;25393;46.108;3.390;2023-03-14T02:11:39;3.42;;;1.13;;
36501;SDS011;25393;46.108;3.390;2023-03-14T02:14:06;6.35;;;0.95;;
36501;SDS011;25393;46.108;3.390;2023-03-14T02:16:36;5.35;;;1.50;;
36501;SDS011;25393;46.108;3.390;2023-03-14T02:19:02;8.95;;;1.23;;
36501;SDS011;25393;46.108;3.390;2023-03-14T02:21:38;2.72;;;0.82;;
36501;SDS011;25393;46.108;3.390;2023-03-14T02:24:17;8.25;;;1.55;;
36501;SDS011;25393;46.108;3.390;2023-03-14T02:29:49;4.75;;;0.90;;
36501;SDS011;25393;46.108;3.390;2023-03-14T02:32:19;5.72;;;1.00;;
36501;SDS011;25393;46.108;3.390;2023-03-14T02:34:49;6.90;;;1.05;;
36501;SDS011;25393;46.108;3.390;2023-03-14T02:37:20;5.38;;;1.10;;
36501;SDS011;25393;46.108;3.390;2023-03-14T02:39:50;7.72;;;1.20;;
36501;SDS011;25393;46.108;3.390;2023-03-14T02:42:17;5.70;;;1.25;;
36501;SDS011;25393;46.108;3.390;2023-03-14T02:44:52;9.18;;;1.80;;
36501;SDS011;25393;46.108;3.390;2023-03-14T02:47:22;4.43;;;0.90;;
36501;SDS011;25393;46.108;3.390;2023-03-14T02:49:55;3.40;;;1.13;;
36501;SDS011;25393;46.108;3.390;2023-03-14T02:52:27;4.50;;;1.13;;
36501;SDS011;25393;46.108;3.390;2023-03-14T02:54:53;7.90;;;0.90;;
36501;SDS011;25393;46.108;3.390;2023-03-14T02:57:20;7.38;;;1.00;;
36501;SDS011;25393;46.108;3.390;2023-03-14T02:59:46;2.08;;;0.70;;
36501;SDS011;25393;46.108;3.390;2023-03-14T03:02:13;2.95;;;0.57;;
36501;SDS011;25393;46.108;3.390;2023-03-14T03:04:39;2.67;;;1.02;;
36501;SDS011;25393;46.108;3.390;2023-03-14T03:07:06;2.20;;;0.60;;
36501;SDS011;25393;46.108;3.390;2023-03-14T03:09:33;2.00;;;0.85;;
36501;SDS011;25393;46.108;3.390;2023-03-14T03:11:59;3.22;;;1.15;;
36501;SDS011;25393;46.108;3.390;2023-03-14T03:14:28;3.20;;;0.70;;
36501;SDS011;25393;46.108;3.390;2023-03-14T03:16:54;3.88;;;1.00;;
36501;SDS011;25393;46.108;3.390;2023-03-14T03:19:21;1.95;;;1.15;;
36501;SDS011;25393;46.108;3.390;2023-03-14T03:21:47;3.50;;;0.63;;
36501;SDS011;25393;46.108;3.390;2023-03-14T03:24:14;6.47;;;0.95;;
36501;SDS011;25393;46.108;3.390;2023-03-14T03:26:41;1.45;;;1.00;;
36501;SDS011;25393;46.108;3.390;2023-03-14T03:29:07;1.45;;;0.70;;
36501;SDS011;25393;46.108;3.390;2023-03-14T03:31:36;4.15;;;0.63;;
36501;SDS011;25393;46.108;3.390;2023-03-14T03:34:04;3.17;;;0.80;;
36501;SDS011;25393;46.108;3.390;2023-03-14T03:36:30;6.03;;;0.90;;
36501;SDS011;25393;46.108;3.390;2023-03-14T03:38:59;1.67;;;0.70;;
36501;SDS011;25393;46.108;3.390;2023-03-14T03:41:26;4.07;;;0.93;;
36501;SDS011;25393;46.108;3.390;2023-03-14T03:43:52;4.13;;;0.80;;
36501;SDS011;25393;46.108;3.390;2023-03-14T03:46:20;2.78;;;0.77;;
36501;SDS011;25393;46.108;3.390;2023-03-14T03:48:46;4.15;;;0.70;;
36501;SDS011;25393;46.108;3.390;2023-03-14T03:51:14;4.93;;;0.90;;
36501;SDS011;25393;46.108;3.390;2023-03-14T03:53:42;2.05;;;0.43;;
36501;SDS011;25393;46.108;3.390;2023-03-14T03:56:09;2.13;;;0.93;;
36501;SDS011;25393;46.108;3.390;2023-03-14T03:58:35;2.63;;;0.47;;
36501;SDS011;25393;46.108;3.390;2023-03-14T04:01:05;1.85;;;0.60;;
36501;SDS011;25393;46.108;3.390;2023-03-14T04:03:36;2.50;;;0.68;;
36501;SDS011;25393;46.108;3.390;2023-03-14T04:06:06;0.63;;;0.43;;
36501;SDS011;25393;46.108;3.390;2023-03-14T04:08:35;1.45;;;0.70;;
36501;SDS011;25393;46.108;3.390;2023-03-14T04:11:01;1.88;;;0.40;;
36501;SDS011;25393;46.108;3.390;2023-03-14T04:13:32;0.73;;;0.32;;
36501;SDS011;25393;46.108;3.390;2023-03-14T04:15:59;2.03;;;0.47;;
36501;SDS011;25393;46.108;3.390;2023-03-14T04:18:26;3.78;;;0.52;;
36501;SDS011;25393;46.108;3.390;2023-03-14T04:20:55;1.10;;;0.68;;
36501;SDS011;25393;46.108;3.390;2023-03-14T04:23:23;1.17;;;0.60;;
36501;SDS011;25393;46.108;3.390;2023-03-14T04:25:51;1.15;;;0.50;;
36501;SDS011;25393;46.108;3.390;2023-03-14T04:28:18;0.73;;;0.40;;
36501;SDS011;25393;46.108;3.390;2023-03-14T04:30:45;0.30;;;0.30;;
36501;SDS011;25393;46.108;3.390;2023-03-14T04:33:11;1.95;;;0.38;;
36501;SDS011;25393;46.108;3.390;2023-03-14T04:35:41;2.38;;;1.15;;
36501;SDS011;25393;46.108;3.390;2023-03-14T04:38:07;1.58;;;0.50;;
36501;SDS011;25393;46.108;3.390;2023-03-14T04:40:36;0.22;;;0.22;;
36501;SDS011;25393;46.108;3.390;2023-03-14T04:43:09;0.20;;;0.20;;
36501;SDS011;25393;46.108;3.390;2023-03-14T04:45:43;0.82;;;0.32;;
36501;SDS011;25393;46.108;3.390;2023-03-14T04:48:09;1.65;;;0.63;;
36501;SDS011;25393;46.108;3.390;2023-03-14T04:50:40;0.30;;;0.30;;
36501;SDS011;25393;46.108;3.390;2023-03-14T04:53:07;0.90;;;0.30;;
36501;SDS011;25393;46.108;3.390;2023-03-14T04:55:33;0.73;;;0.30;;
36501;SDS011;25393;46.108;3.390;2023-03-14T04:58:03;0.20;;;0.20;;
36501;SDS011;25393;46.108;3.390;2023-03-14T05:00:29;0.35;;;0.30;;
36501;SDS011;25393;46.108;3.390;2023-03-14T05:02:56;1.20;;;0.38;;
36501;SDS011;25393;46.108;3.390;2023-03-14T05:05:23;0.28;;;0.28;;
36501;SDS011;25393;46.108;3.390;2023-03-14T05:07:49;0.20;;;0.20;;
36501;SDS011;25393;46.108;3.390;2023-03-14T05:10:16;0.20;;;0.20;;
36501;SDS011;25393;46.108;3.390;2023-03-14T05:12:42;0.30;;;0.30;;
36501;SDS011;25393;46.108;3.390;2023-03-14T05:15:09;0.35;;;0.30;;
36501;SDS011;25393;46.108;3.390;2023-03-14T05:17:35;0.20;;;0.20;;
36501;SDS011;25393;46.108;3.390;2023-03-14T05:20:04;0.20;;;0.20;;
36501;SDS011;25393;46.108;3.390;2023-03-14T05:22:34;0.30;;;0.30;;
36501;SDS011;25393;46.108;3.390;2023-03-14T05:25:01;0.20;;;0.20;;
36501;SDS011;25393;46.108;3.390;2023-03-14T05:27:28;0.30;;;0.30;;
36501;SDS011;25393;46.108;3.390;2023-03-14T05:29:54;0.35;;;0.30;;
36501;SDS011;25393;46.108;3.390;2023-03-14T05:32:21;0.30;;;0.30;;
36501;SDS011;25393;46.108;3.390;2023-03-14T05:34:47;0.30;;;0.30;;
36501;SDS011;25393;46.108;3.390;2023-03-14T05:37:14;0.30;;;0.30;;
36501;SDS011;25393;46.108;3.390;2023-03-14T05:39:40;0.20;;;0.20;;
36501;SDS011;25393;46.108;3.390;2023-03-14T05:42:07;0.30;;;0.30;;
36501;SDS011;25393;46.108;3.390;2023-03-14T05:44:36;0.30;;;0.30;;
36501;SDS011;25393;46.108;3.390;2023-03-14T05:47:02;0.20;;;0.20;;
36501;SDS011;25393;46.108;3.390;2023-03-14T05:49:29;0.90;;;0.20;;
36501;SDS011;25393;46.108;3.390;2023-03-14T05:51:55;0.20;;;0.20;;
36501;SDS011;25393;46.108;3.390;2023-03-14T05:54:22;0.30;;;0.30;;
36501;SDS011;25393;46.108;3.390;2023-03-14T05:56:48;0.28;;;0.28;;
36501;SDS011;25393;46.108;3.390;2023-03-14T05:59:15;0.30;;;0.30;;
36501;SDS011;25393;46.108;3.390;2023-03-14T06:01:41;0.30;;;0.30;;
36501;SDS011;25393;46.108;3.390;2023-03-14T06:04:12;0.28;;;0.28;;
36501;SDS011;25393;46.108;3.390;2023-03-14T06:06:43;1.27;;;0.63;;
36501;SDS011;25393;46.108;3.390;2023-03-14T06:09:12;0.20;;;0.20;;
36501;SDS011;25393;46.108;3.390;2023-03-14T06:11:42;1.20;;;0.30;;
36501;SDS011;25393;46.108;3.390;2023-03-14T06:14:09;0.38;;;0.38;;
36501;SDS011;25393;46.108;3.390;2023-03-14T06:16:42;0.30;;;0.30;;
36501;SDS011;25393;46.108;3.390;2023-03-14T06:19:12;0.57;;;0.30;;
36501;SDS011;25393;46.108;3.390;2023-03-14T06:21:42;0.20;;;0.20;;
36501;SDS011;25393;46.108;3.390;2023-03-14T06:24:09;0.20;;;0.20;;
36501;SDS011;25393;46.108;3.390;2023-03-14T06:26:36;0.57;;;0.50;;
36501;SDS011;25393;46.108;3.390;2023-03-14T06:29:03;6.13;;;0.35;;
36501;SDS011;25393;46.108;3.390;2023-03-14T06:31:30;1.30;;;0.40;;
36501;SDS011;25393;46.108;3.390;2023-03-14T06:33:57;0.22;;;0.22;;
36501;SDS011;25393;46.108;3.390;2023-03-14T06:36:23;0.20;;;0.20;;
36501;SDS011;25393;46.108;3.390;2023-03-14T06:38:50;0.30;;;0.30;;
36501;SDS011;25393;46.108;3.390;2023-03-14T06:41:17;2.03;;;0.40;;
36501;SDS011;25393;46.108;3.390;2023-03-14T06:43:44;1.10;;;0.40;;
36501;SDS011;25393;46.108;3.390;2023-03-14T06:46:10;0.25;;;0.25;;
36501;SDS011;25393;46.108;3.390;2023-03-14T06:48:37;0.30;;;0.30;;
36501;SDS011;25393;46.108;3.390;2023-03-14T06:51:05;0.35;;;0.32;;
36501;SDS011;25393;46.108;3.390;2023-03-14T06:53:32;0.55;;;0.30;;
36501;SDS011;25393;46.108;3.390;2023-03-14T06:55:59;0.40;;;0.40;;
36501;SDS011;25393;46.108;3.390;2023-03-14T06:58:43;6.53;;;0.60;;
36501;SDS011;25393;46.108;3.390;2023-03-14T07:01:17;1.23;;;0.50;;
36501;SDS011;25393;46.108;3.390;2023-03-14T07:03:48;1.10;;;0.50;;
36501;SDS011;25393;46.108;3.390;2023-03-14T07:06:14;4.82;;;0.50;;
36501;SDS011;25393;46.108;3.390;2023-03-14T07:08:41;2.47;;;0.47;;
36501;SDS011;25393;46.108;3.390;2023-03-14T07:11:08;1.67;;;0.60;;
36501;SDS011;25393;46.108;3.390;2023-03-14T07:13:39;0.95;;;0.60;;
36501;SDS011;25393;46.108;3.390;2023-03-14T07:16:11;3.22;;;0.52;;
36501;SDS011;25393;46.108;3.390;2023-03-14T07:18:38;1.08;;;0.57;;
36501;SDS011;25393;46.108;3.390;2023-03-14T07:21:07;0.50;;;0.50;;
36501;SDS011;25393;46.108;3.390;2023-03-14T07:23:36;4.00;;;0.65;;
36501;SDS011;25393;46.108;3.390;2023-03-14T07:26:03;2.33;;;0.67;;
36501;SDS011;25393;46.108;3.390;2023-03-14T07:28:30;3.63;;;0.70;;
36501;SDS011;25393;46.108;3.390;2023-03-14T07:30:56;5.50;;;1.30;;
36501;SDS011;25393;46.108;3.390;2023-03-14T07:33:23;4.00;;;0.90;;
36501;SDS011;25393;46.108;3.390;2023-03-14T07:35:49;9.73;;;1.47;;
36501;SDS011;25393;46.108;3.390;2023-03-14T07:38:16;4.13;;;1.00;;
36501;SDS011;25393;46.108;3.390;2023-03-14T07:40:45;2.87;;;0.97;;
36501;SDS011;25393;46.108;3.390;2023-03-14T07:43:12;11.30;;;1.93;;
36501;SDS011;25393;46.108;3.390;2023-03-14T07:45:44;6.10;;;1.37;;
36501;SDS011;25393;46.108;3.390;2023-03-14T07:48:16;6.83;;;1.13;;
36501;SDS011;25393;46.108;3.390;2023-03-14T07:50:43;6.60;;;1.67;;
36501;SDS011;25393;46.108;3.390;2023-03-14T07:53:13;8.13;;;1.60;;
36501;SDS011;25393;46.108;3.390;2023-03-14T07:55:42;5.77;;;1.40;;
36501;SDS011;25393;46.108;3.390;2023-03-14T07:58:12;14.57;;;1.83;;
36501;SDS011;25393;46.108;3.390;2023-03-14T08:00:41;7.53;;;2.30;;
36501;SDS011;25393;46.108;3.390;2023-03-14T08:03:12;8.07;;;1.50;;
36501;SDS011;25393;46.108;3.390;2023-03-14T08:05:42;6.13;;;1.43;;
36501;SDS011;25393;46.108;3.390;2023-03-14T08:08:12;9.68;;;2.67;;
36501;SDS011;25393;46.108;3.390;2023-03-14T08:10:41;6.63;;;1.63;;
36501;SDS011;25393;46.108;3.390;2023-03-14T08:13:13;13.05;;;1.40;;
36501;SDS011;25393;46.108;3.390;2023-03-14T08:15:40;5.45;;;1.63;;
36501;SDS011;25393;46.108;3.390;2023-03-14T08:18:07;17.23;;;2.05;;
36501;SDS011;25393;46.108;3.390;2023-03-14T08:20:35;9.73;;;1.90;;
36501;SDS011;25393;46.108;3.390;2023-03-14T08:23:02;16.55;;;2.53;;
36501;SDS011;25393;46.108;3.390;2023-03-14T08:25:28;26.45;;;3.42;;
36501;SDS011;25393;46.108;3.390;2023-03-14T08:27:55;8.65;;;1.48;;
36501;SDS011;25393;46.108;3.390;2023-03-14T08:30:22;8.33;;;1.97;;
36501;SDS011;25393;46.108;3.390;2023-03-14T08:32:49;17.60;;;2.17;;
36501;SDS011;25393;46.108;3.390;2023-03-14T08:35:16;12.88;;;2.47;;
36501;SDS011;25393;46.108;3.390;2023-03-14T08:37:42;15.73;;;2.20;;
36501;SDS011;25393;46.108;3.390;2023-03-14T08:40:12;12.63;;;2.10;;
36501;SDS011;25393;46.108;3.390;2023-03-14T08:42:42;11.23;;;1.73;;
36501;SDS011;25393;46.108;3.390;2023-03-14T08:45:13;8.05;;;1.70;;
36501;SDS011;25393;46.108;3.390;2023-03-14T08:47:41;11.85;;;2.42;;
36501;SDS011;25393;46.108;3.390;2023-03-14T08:50:07;13.50;;;1.83;;
36501;SDS011;25393;46.108;3.390;2023-03-14T08:52:41;11.10;;;2.00;;
36501;SDS011;25393;46.108;3.390;2023-03-14T08:55:08;7.47;;;2.00;;
36501;SDS011;25393;46.108;3.390;2023-03-14T08:57:37;12.75;;;2.03;;
36501;SDS011;25393;46.108;3.390;2023-03-14T09:00:06;15.18;;;1.88;;
36501;SDS011;25393;46.108;3.390;2023-03-14T09:02:41;6.90;;;2.03;;
36501;SDS011;25393;46.108;3.390;2023-03-14T09:05:10;10.38;;;2.22;;
36501;SDS011;25393;46.108;3.390;2023-03-14T09:07:40;10.13;;;2.05;;
36501;SDS011;25393;46.108;3.390;2023-03-14T09:10:07;10.00;;;2.03;;
36501;SDS011;25393;46.108;3.390;2023-03-14T09:12:35;8.85;;;1.55;;
36501;SDS011;25393;46.108;3.390;2023-03-14T09:15:02;12.00;;;1.63;;
36501;SDS011;25393;46.108;3.390;2023-03-14T09:17:29;6.60;;;1.40;;
36501;SDS011;25393;46.108;3.390;2023-03-14T09:19:56;14.70;;;1.83;;
36501;SDS011;25393;46.108;3.390;2023-03-14T09:22:25;9.23;;;2.55;;
36501;SDS011;25393;46.108;3.390;2023-03-14T09:24:52;6.45;;;0.98;;
36501;SDS011;25393;46.108;3.390;2023-03-14T09:27:18;7.10;;;1.67;;
36501;SDS011;25393;46.108;3.390;2023-03-14T09:29:45;11.50;;;1.67;;
36501;SDS011;25393;46.108;3.390;2023-03-14T09:32:11;8.10;;;1.10;;
36501;SDS011;25393;46.108;3.390;2023-03-14T09:34:41;3.25;;;1.30;;
36501;SDS011;25393;46.108;3.390;2023-03-14T09:37:07;7.38;;;1.33;;
36501;SDS011;25393;46.108;3.390;2023-03-14T09:39:36;5.13;;;1.40;;
36501;SDS011;25393;46.108;3.390;2023-03-14T09:42:04;7.57;;;1.50;;
36501;SDS011;25393;46.108;3.390;2023-03-14T09:44:37;10.70;;;1.42;;
36501;SDS011;25393;46.108;3.390;2023-03-14T09:47:12;6.93;;;1.33;;
36501;SDS011;25393;46.108;3.390;2023-03-14T09:49:40;5.75;;;0.85;;
36501;SDS011;25393;46.108;3.390;2023-03-14T09:54:59;8.57;;;1.58;;
36501;SDS011;25393;46.108;3.390;2023-03-14T09:57:29;6.93;;;1.42;;
36501;SDS011;25393;46.108;3.390;2023-03-14T10:00:00;8.50;;;1.48;;
36501;SDS011;25393;46.108;3.390;2023-03-14T10:02:41;8.88;;;1.63;;
36501;SDS011;25393;46.108;3.390;2023-03-14T10:05:16;5.85;;;1.27;;
36501;SDS011;25393;46.108;3.390;2023-03-14T10:07:44;10.02;;;1.20;;
36501;SDS011;25393;46.108;3.390;2023-03-14T10:10:13;11.27;;;1.10;;
36501;SDS011;25393;46.108;3.390;2023-03-14T10:12:45;4.40;;;1.17;;
36501;SDS011;25393;46.108;3.390;2023-03-14T10:15:15;4.20;;;1.35;;
36501;SDS011;25393;46.108;3.390;2023-03-14T10:17:53;6.03;;;1.00;;
36501;SDS011;25393;46.108;3.390;2023-03-14T10:23:01;5.10;;;1.38;;
36501;SDS011;25393;46.108;3.390;2023-03-14T10:25:30;10.35;;;1.85;;
36501;SDS011;25393;46.108;3.390;2023-03-14T10:28:02;6.80;;;1.40;;
36501;SDS011;25393;46.108;3.390;2023-03-14T10:30:35;4.88;;;1.60;;
36501;SDS011;25393;46.108;3.390;2023-03-14T10:33:33;11.35;;;2.10;;
36501;SDS011;25393;46.108;3.390;2023-03-14T10:36:17;5.65;;;1.45;;
36501;SDS011;25393;46.108;3.390;2023-03-14T10:38:49;8.30;;;1.20;;
36501;SDS011;25393;46.108;3.390;2023-03-14T10:41:25;5.28;;;1.48;;
36501;SDS011;25393;46.108;3.390;2023-03-14T10:43:53;5.88;;;1.70;;
36501;SDS011;25393;46.108;3.390;2023-03-14T10:46:24;8.00;;;1.77;;
36501;SDS011;25393;46.108;3.390;2023-03-14T10:48:53;11.48;;;1.35;;
36501;SDS011;25393;46.108;3.390;2023-03-14T10:51:24;5.28;;;1.40;;
36501;SDS011;25393;46.108;3.390;2023-03-14T10:56:23;6.10;;;1.70;;
36501;SDS011;25393;46.108;3.390;2023-03-14T10:58:52;9.88;;;1.33;;
36501;SDS011;25393;46.108;3.390;2023-03-14T11:09:53;7.63;;;1.50;;
36501;SDS011;25393;46.108;3.390;2023-03-14T11:15:33;4.97;;;1.35;;
36501;SDS011;25393;46.108;3.390;2023-03-14T11:18:31;7.50;;;1.30;;
36501;SDS011;25393;46.108;3.390;2023-03-14T11:24:02;7.03;;;0.80;;
36501;SDS011;25393;46.108;3.390;2023-03-14T11:31:59;4.55;;;1.05;;
36501;SDS011;25393;46.108;3.390;2023-03-14T11:37:14;4.28;;;1.48;;
36501;SDS011;25393;46.108;3.390;2023-03-14T11:42:56;9.50;;;1.27;;
36501;SDS011;25393;46.108;3.390;2023-03-14T11:45:32;4.90;;;0.95;;
36501;SDS011;25393;46.108;3.390;2023-03-14T11:51:57;7.30;;;1.00;;
36501;SDS011;25393;46.108;3.390;2023-03-14T11:56:58;7.90;;;1.13;;
36501;SDS011;25393;46.108;3.390;2023-03-14T12:02:01;8.48;;;1.05;;
36501;SDS011;25393;46.108;3.390;2023-03-14T12:07:38;8.43;;;1.00;;
36501;SDS011;25393;46.108;3.390;2023-03-14T12:10:22;7.28;;;1.15;;
36501;SDS011;25393;46.108;3.390;2023-03-14T12:12:48;5.95;;;0.82;;
36501;SDS011;25393;46.108;3.390;2023-03-14T12:15:18;2.67;;;1.00;;
36501;SDS011;25393;46.108;3.390;2023-03-14T12:17:47;5.68;;;1.25;;
36501;SDS011;25393;46.108;3.390;2023-03-14T12:20:24;7.35;;;1.38;;
36501;SDS011;25393;46.108;3.390;2023-03-14T12:23:10;4.65;;;1.35;;
36501;SDS011;25393;46.108;3.390;2023-03-14T12:25:42;3.38;;;0.90;;
36501;SDS011;25393;46.108;3.390;2023-03-14T12:28:18;8.93;;;1.25;;
36501;SDS011;25393;46.108;3.390;2023-03-14T12:30:45;6.22;;;0.70;;
36501;SDS011;25393;46.108;3.390;2023-03-14T12:35:48;5.63;;;1.20;;
36501;SDS011;25393;46.108;3.390;2023-03-14T12:38:26;5.25;;;1.08;;
36501;SDS011;25393;46.108;3.390;2023-03-14T12:41:06;3.60;;;1.15;;
36501;SDS011;25393;46.108;3.390;2023-03-14T12:43:53;2.72;;;0.80;;
36501;SDS011;25393;46.108;3.390;2023-03-14T12:46:29;2.55;;;0.95;;
36501;SDS011;25393;46.108;3.390;2023-03-14T12:51:38;2.10;;;0.88;;
36501;SDS011;25393;46.108;3.390;2023-03-14T12:59:39;3.15;;;0.82;;
36501;SDS011;25393;46.108;3.390;2023-03-14T13:02:21;5.20;;;2.10;;
36501;SDS011;25393;46.108;3.390;2023-03-14T13:04:51;5.00;;;1.15;;
36501;SDS011;25393;46.108;3.390;2023-03-14T13:07:29;6.93;;;1.00;;
36501;SDS011;25393;46.108;3.390;2023-03-14T13:10:05;2.50;;;0.93;;
36501;SDS011;25393;46.108;3.390;2023-03-14T13:12:56;4.57;;;0.82;;
36501;SDS011;25393;46.108;3.390;2023-03-14T13:15:49;4.25;;;1.05;;
36501;SDS011;25393;46.108;3.390;2023-03-14T13:18:38;4.22;;;1.15;;
36501;SDS011;25393;46.108;3.390;2023-03-14T13:21:11;2.28;;;1.05;;
36501;SDS011;25393;46.108;3.390;2023-03-14T13:26:26;2.45;;;0.90;;
36501;SDS011;25393;46.108;3.390;2023-03-14T13:29:17;6.65;;;1.08;;
36501;SDS011;25393;46.108;3.390;2023-03-14T13:31:47;3.33;;;0.80;;
36501;SDS011;25393;46.108;3.390;2023-03-14T13:34:15;7.65;;;1.08;;
36501;SDS011;25393;46.108;3.390;2023-03-14T13:36:43;2.90;;;1.20;;
36501;SDS011;25393;46.108;3.390;2023-03-14T13:39:14;4.78;;;0.93;;
36501;SDS011;25393;46.108;3.390;2023-03-14T13:41:46;4.72;;;0.80;;
36501;SDS011;25393;46.108;3.390;2023-03-14T13:44:23;3.08;;;1.00;;
36501;SDS011;25393;46.108;3.390;2023-03-14T13:46:56;6.07;;;1.08;;
36501;SDS011;25393;46.108;3.390;2023-03-14T13:49:24;6.22;;;0.90;;
36501;SDS011;25393;46.108;3.390;2023-03-14T13:51:52;7.93;;;1.13;;
36501;SDS011;25393;46.108;3.390;2023-03-14T13:54:20;5.75;;;1.10;;
36501;SDS011;25393;46.108;3.390;2023-03-14T13:56:48;9.35;;;1.30;;
36501;SDS011;25393;46.108;3.390;2023-03-14T13:59:27;2.58;;;1.05;;
36501;SDS011;25393;46.108;3.390;2023-03-14T14:01:55;4.78;;;1.30;;
36501;SDS011;25393;46.108;3.390;2023-03-14T14:04:24;6.32;;;1.27;;
36501;SDS011;25393;46.108;3.390;2023-03-14T14:06:57;4.57;;;1.20;;
36501;SDS011;25393;46.108;3.390;2023-03-14T14:14:43;6.38;;;1.50;;
36501;SDS011;25393;46.108;3.390;2023-03-14T14:17:25;8.40;;;1.50;;
36501;SDS011;25393;46.108;3.390;2023-03-14T14:19:56;3.17;;;1.35;;
36501;SDS011;25393;46.108;3.390;2023-03-14T14:22:23;5.05;;;0.93;;
36501;SDS011;25393;46.108;3.390;2023-03-14T14:24:52;7.38;;;1.35;;
36501;SDS011;25393;46.108;3.390;2023-03-14T14:27:23;6.85;;;0.80;;
36501;SDS011;25393;46.108;3.390;2023-03-14T14:30:05;7.15;;;1.02;;
36501;SDS011;25393;46.108;3.390;2023-03-14T14:32:50;2.15;;;0.70;;
36501;SDS011;25393;46.108;3.390;2023-03-14T14:35:33;5.75;;;1.02;;
36501;SDS011;25393;46.108;3.390;2023-03-14T14:38:01;5.22;;;0.90;;
36501;SDS011;25393;46.108;3.390;2023-03-14T14:40:35;3.30;;;0.98;;
36501;SDS011;25393;46.108;3.390;2023-03-14T14:43:16;2.72;;;0.80;;
36501;SDS011;25393;46.108;3.390;2023-03-14T14:45:51;11.10;;;0.80;;
36501;SDS011;25393;46.108;3.390;2023-03-14T14:48:23;1.60;;;0.70;;
36501;SDS011;25393;46.108;3.390;2023-03-14T14:50:59;3.85;;;1.00;;
36501;SDS011;25393;46.108;3.390;2023-03-14T14:56:06;1.98;;;1.00;;
36501;SDS011;25393;46.108;3.390;2023-03-14T14:58:43;3.85;;;1.13;;
36501;SDS011;25393;46.108;3.390;2023-03-14T15:01:14;3.65;;;0.70;;
36501;SDS011;25393;46.108;3.390;2023-03-14T15:03:50;4.53;;;0.95;;
36501;SDS011;25393;46.108;3.390;2023-03-14T15:06:21;1.73;;;1.00;;
36501;SDS011;25393;46.108;3.390;2023-03-14T15:08:54;4.03;;;0.70;;
36501;SDS011;25393;46.108;3.390;2023-03-14T15:11:21;4.90;;;1.13;;
36501;SDS011;25393;46.108;3.390;2023-03-14T15:13:50;5.68;;;0.80;;
36501;SDS011;25393;46.108;3.390;2023-03-14T15:16:21;3.10;;;1.35;;
36501;SDS011;25393;46.108;3.390;2023-03-14T15:19:01;3.03;;;0.88;;
36501;SDS011;25393;46.108;3.390;2023-03-14T15:21:52;11.52;;;1.08;;
36501;SDS011;25393;46.108;3.390;2023-03-14T15:24:20;4.40;;;1.10;;
36501;SDS011;25393;46.108;3.390;2023-03-14T15:26:46;4.57;;;1.10;;
36501;SDS011;25393;46.108;3.390;2023-03-14T15:29:16;5.57;;;1.58;;
36501;SDS011;25393;46.108;3.390;2023-03-14T15:31:44;4.68;;;0.85;;
36501;SDS011;25393;46.108;3.390;2023-03-14T15:34:11;5.65;;;0.70;;
36501;SDS011;25393;46.108;3.390;2023-03-14T15:36:37;6.38;;;1.10;;
36501;SDS011;25393;46.108;3.390;2023-03-14T15:39:05;2.70;;;0.77;;
36501;SDS011;25393;46.108;3.390;2023-03-14T15:41:32;6.95;;;1.00;;
36501;SDS011;25393;46.108;3.390;2023-03-14T15:43:59;4.72;;;0.90;;
36501;SDS011;25393;46.108;3.390;2023-03-14T15:46:26;1.52;;;1.30;;
36501;SDS011;25393;46.108;3.390;2023-03-14T15:48:55;3.78;;;0.77;;
36501;SDS011;25393;46.108;3.390;2023-03-14T15:51:22;0.73;;;0.55;;
36501;SDS011;25393;46.108;3.390;2023-03-14T15:53:51;5.55;;;0.88;;
36501;SDS011;25393;46.108;3.390;2023-03-14T15:56:19;3.67;;;1.02;;
36501;SDS011;25393;46.108;3.390;2023-03-14T15:58:46;2.85;;;0.60;;
36501;SDS011;25393;46.108;3.390;2023-03-14T16:01:14;6.28;;;1.25;;
36501;SDS011;25393;46.108;3.390;2023-03-14T16:03:47;2.80;;;0.88;;
36501;SDS011;25393;46.108;3.390;2023-03-14T16:06:19;4.78;;;1.33;;
36501;SDS011;25393;46.108;3.390;2023-03-14T16:08:45;5.50;;;0.80;;
36501;SDS011;25393;46.108;3.390;2023-03-14T16:11:13;5.32;;;1.20;;
36501;SDS011;25393;46.108;3.390;2023-03-14T16:13:41;6.43;;;0.82;;
36501;SDS011;25393;46.108;3.390;2023-03-14T16:16:08;3.75;;;0.88;;